Hermon, Maine
Current Conditions -  °F | °C
As of 5:53 AM on Monday 22 Dec 2014 (Local Time) from KBGR Reporting Station
Overcast Overcast  
Wind Chill: 27°   Ceiling: 5500
Heat Index: 27°   Visibility: 10mi
Dew Point: 24°   Wind: 3mph
Humidity: 89%   Direction: 10°N
Pressure: 30.41"   Gusts: NA
Location:  44.8521°N, 68.8311°W
Report Text: KBGR 221053Z 01003KT 10SM OVC055 M03/M04 A3041 RMK AO2 SLP300 T10281044
Loading
Personal Weather Stations






























Interactive Weather Map New forecast layout! Learn more

10-Day Weather Forecast

Advertisements
Track Severe Weather on mobile